Time;durP1;ratioP1;P1;durP2;ratioP2;P2;SDS_P1;SDS_P2;PMS_P1;PMS_P2;Temp;Humidity;BMP_temperature;BMP_pressure;BME280_temperature;BME280_humidity;BME280_pressure;Samples;Min_cycle;Max_cycle;Signal;HPM_P1;HPM_P2
2021/12/24 00:01:46;;;;;;;63.87;32.27;;;1.90;99.90;;;;;;5137235;28;20556;-49
2021/12/24 00:04:16;;;;;;;57.93;31.00;;;1.90;99.90;;;;;;5162432;28;20181;-50
2021/12/24 00:06:48;;;;;;;62.83;32.47;;;1.90;99.90;;;;;;5147190;28;20193;-50
2021/12/24 00:09:25;;;;;;;64.93;31.57;;;2.00;99.90;;;;;;5155550;28;20254;-51
2021/12/24 00:11:58;;;;;;;68.97;34.63;;;1.90;99.90;;;;;;5163152;28;20546;-52
2021/12/24 00:14:31;;;;;;;60.13;31.17;;;1.90;99.90;;;;;;5162683;28;20440;-52
2021/12/24 00:17:04;;;;;;;61.73;31.90;;;2.00;99.90;;;;;;5162273;28;20782;-51
2021/12/24 00:36:29;;;;;;;64.73;32.07;;;2.10;99.90;;;;;;5162867;28;20481;-50
2021/12/24 00:39:00;;;;;;;75.63;33.73;;;2.10;99.90;;;;;;5166513;28;20432;-53
2021/12/24 00:41:30;;;;;;;66.17;32.37;;;2.10;99.90;;;;;;5157616;28;20921;-51
2021/12/24 00:44:01;;;;;;;71.10;32.90;;;2.10;99.90;;;;;;5164362;28;20217;-50
2021/12/24 00:46:33;;;;;;;75.03;32.63;;;2.10;99.90;;;;;;5159218;28;20224;-51
2021/12/24 00:49:04;;;;;;;77.90;35.00;;;2.10;99.90;;;;;;5165276;28;20196;-51
2021/12/24 00:57:12;;;;;;;70.00;34.30;;;2.20;99.90;;;;;;5154863;28;20474;-51
2021/12/24 00:59:43;;;;;;;59.83;31.50;;;2.20;99.90;;;;;;5167457;28;21124;-50
2021/12/24 01:02:13;;;;;;;49.83;28.97;;;2.20;99.90;;;;;;5151158;28;20209;-52
2021/12/24 01:04:44;;;;;;;65.43;32.33;;;2.20;99.90;;;;;;5149257;28;20549;-52
2021/12/24 01:07:14;;;;;;;62.33;30.63;;;2.20;99.90;;;;;;5166756;28;20181;-50
2021/12/24 01:09:45;;;;;;;72.63;35.27;;;2.20;99.90;;;;;;5150801;28;20177;-51
2021/12/24 01:12:16;;;;;;;80.73;33.80;;;2.20;99.90;;;;;;5154979;28;20277;-51
2021/12/24 01:14:48;;;;;;;67.13;34.47;;;2.20;99.90;;;;;;5145317;28;20274;-50
2021/12/24 01:19:57;;;;;;;65.33;33.73;;;2.30;99.90;;;;;;5167017;28;20509;-50
2021/12/24 01:23:10;;;;;;;67.73;31.37;;;2.30;99.90;;;;;;5145309;28;20475;-50
2021/12/24 01:25:34;;;;;;;66.77;31.47;;;2.30;99.90;;;;;;5168128;28;20473;-50
2021/12/24 01:28:35;;;;;;;66.00;32.10;;;2.30;99.90;;;;;;5150710;28;20511;-51
2021/12/24 01:45:21;;;;;;;67.50;30.27;;;2.50;99.90;;;;;;5162251;28;20458;-51
2021/12/24 01:47:54;;;;;;;68.33;32.17;;;2.50;99.90;;;;;;5149335;28;20440;-51
2021/12/24 01:50:27;;;;;;;61.73;30.50;;;2.50;99.90;;;;;;5147123;28;20434;-51
2021/12/24 01:52:59;;;;;;;75.10;32.50;;;2.50;99.90;;;;;;5161977;28;20443;-50
2021/12/24 01:55:30;;;;;;;55.73;27.00;;;2.50;99.90;;;;;;5174052;28;20431;-50
2021/12/24 01:58:00;;;;;;;65.57;33.40;;;2.50;99.90;;;;;;5158513;28;20967;-49
2021/12/24 02:00:39;;;;;;;56.40;28.03;;;2.50;99.90;;;;;;5164387;28;20197;-50
2021/12/24 02:03:11;;;;;;;61.83;29.10;;;2.60;99.90;;;;;;5159265;28;20261;-49
2021/12/24 02:05:42;;;;;;;62.53;29.77;;;2.60;99.90;;;;;;5166870;28;20436;-50
2021/12/24 02:08:13;;;;;;;58.87;29.13;;;2.50;99.90;;;;;;5158749;28;20408;-50
2021/12/24 02:10:44;;;;;;;66.37;29.30;;;2.60;99.90;;;;;;5145492;28;20478;-49
2021/12/24 02:13:15;;;;;;;66.97;28.73;;;2.60;99.90;;;;;;5148234;28;20976;-49
2021/12/24 02:29:34;;;;;;;51.03;24.93;;;2.70;99.90;;;;;;5149303;28;20439;-52
2021/12/24 02:32:05;;;;;;;44.53;23.83;;;2.70;99.90;;;;;;5150063;28;20452;-50
2021/12/24 02:34:35;;;;;;;51.77;25.03;;;2.70;99.90;;;;;;5148148;28;20373;-49
2021/12/24 02:37:06;;;;;;;47.00;24.43;;;2.70;99.90;;;;;;5152902;28;20468;-49
2021/12/24 02:39:37;;;;;;;54.10;23.40;;;2.70;99.90;;;;;;5166045;28;20715;-49
2021/12/24 02:42:16;;;;;;;59.17;26.80;;;2.80;99.90;;;;;;5140157;28;20324;-49
2021/12/24 02:44:49;;;;;;;42.07;21.00;;;2.70;99.90;;;;;;5162973;28;20476;-48
2021/12/24 02:55:15;;;;;;;62.17;26.63;;;2.80;99.90;;;;;;5167645;28;20529;-48
2021/12/24 02:57:46;;;;;;;40.70;22.87;;;2.80;99.90;;;;;;5139593;28;20444;-51
2021/12/24 03:00:20;;;;;;;38.37;19.27;;;2.80;99.90;;;;;;5167716;28;20443;-48
2021/12/24 03:02:55;;;;;;;48.73;23.77;;;2.90;99.90;;;;;;5131476;28;20467;-49
2021/12/24 03:05:26;;;;;;;46.03;22.80;;;2.90;99.90;;;;;;5144793;28;20474;-49
2021/12/24 03:07:57;;;;;;;49.17;23.07;;;2.90;99.90;;;;;;5158053;28;20464;-48
2021/12/24 03:10:27;;;;;;;43.40;20.40;;;2.90;99.90;;;;;;5168817;28;20514;-48
2021/12/24 03:12:58;;;;;;;44.30;22.43;;;2.90;99.90;;;;;;5160882;28;20321;-49
2021/12/24 03:15:28;;;;;;;44.93;21.97;;;2.90;99.90;;;;;;5153072;28;20602;-50
2021/12/24 03:18:00;;;;;;;37.30;19.90;;;3.00;99.90;;;;;;5146480;28;20989;-49
2021/12/24 03:20:34;;;;;;;60.07;24.60;;;3.00;99.90;;;;;;5164442;28;20192;-49
2021/12/24 03:23:21;;;;;;;40.80;21.10;;;3.00;99.90;;;;;;5157112;28;20534;-50
2021/12/24 03:25:51;;;;;;;45.37;21.80;;;3.00;99.90;;;;;;5166867;28;20932;-51
2021/12/24 03:28:22;;;;;;;46.67;21.63;;;3.00;99.90;;;;;;5133127;28;20445;-51
2021/12/24 03:30:52;;;;;;;45.07;20.90;;;3.00;99.90;;;;;;5149746;28;20189;-49
2021/12/24 03:33:23;;;;;;;44.97;20.30;;;3.10;99.90;;;;;;5161707;28;20720;-51
2021/12/24 03:35:54;;;;;;;48.83;22.43;;;3.10;99.90;;;;;;5151781;28;20288;-50
2021/12/24 03:38:24;;;;;;;45.43;21.27;;;3.10;99.90;;;;;;5145105;28;20445;-50
2021/12/24 03:40:55;;;;;;;54.60;24.27;;;3.10;99.90;;;;;;5167289;28;20673;-50
2021/12/24 03:43:26;;;;;;;50.93;23.67;;;3.10;99.90;;;;;;5138460;28;20670;-50
2021/12/24 03:46:04;;;;;;;40.07;21.87;;;3.20;99.90;;;;;;5167675;28;20181;-50
2021/12/24 03:56:37;;;;;;;46.70;23.07;;;3.20;99.90;;;;;;5170807;28;20443;-49
2021/12/24 03:59:09;;;;;;;45.30;21.97;;;3.20;99.90;;;;;;5149889;28;20443;-49
2021/12/24 04:01:40;;;;;;;42.93;21.57;;;3.30;99.90;;;;;;5165303;28;20476;-49
2021/12/24 04:04:12;;;;;;;42.17;22.13;;;3.30;99.90;;;;;;5131977;28;20438;-49
2021/12/24 04:06:42;;;;;;;46.00;23.23;;;3.30;99.90;;;;;;5163249;28;20444;-48
2021/12/24 04:09:13;;;;;;;37.73;19.70;;;3.30;99.90;;;;;;5155299;28;20890;-50
2021/12/24 04:11:43;;;;;;;58.20;25.83;;;3.30;99.90;;;;;;5146840;28;20214;-50
2021/12/24 04:14:14;;;;;;;43.60;21.57;;;3.30;99.90;;;;;;5159976;28;20192;-49
2021/12/24 04:16:45;;;;;;;67.60;26.63;;;3.40;99.90;;;;;;5158747;28;20551;-50
2021/12/24 04:19:26;;;;;;;32.60;18.90;;;3.40;99.90;;;;;;5148064;28;20320;-49
2021/12/24 04:27:26;;;;;;;36.80;19.63;;;3.50;99.90;;;;;;5164009;28;20429;-49
2021/12/24 04:30:09;;;;;;;45.43;22.77;;;3.50;99.90;;;;;;5143053;28;20515;-48
2021/12/24 04:38:27;;;;;;;56.13;23.87;;;3.50;99.90;;;;;;5158348;28;20836;-49
2021/12/24 04:52:38;;;;;;;62.53;25.93;;;3.60;99.90;;;;;;5148883;28;20472;-51
2021/12/24 05:03:37;;;;;;;41.03;18.53;;;3.80;99.90;;;;;;5148618;28;20492;-51
2021/12/24 05:06:27;;;;;;;26.07;16.67;;;3.80;99.90;;;;;;5146152;28;20436;-51
2021/12/24 05:09:05;;;;;;;39.03;17.80;;;3.90;99.90;;;;;;5141271;28;20836;-52
2021/12/24 05:11:36;;;;;;;26.10;15.07;;;3.80;99.90;;;;;;5145090;28;20441;-51
2021/12/24 05:14:07;;;;;;;27.20;15.70;;;3.90;99.90;;;;;;5144507;28;20434;-51
2021/12/24 05:16:43;;;;;;;39.40;16.87;;;3.90;99.90;;;;;;5147036;28;20437;-51
2021/12/24 05:22:04;;;;;;;47.37;19.43;;;3.90;99.90;;;;;;5147161;28;20524;-51
2021/12/24 05:24:35;;;;;;;29.90;15.30;;;3.90;99.90;;;;;;5125931;28;20445;-52
2021/12/24 05:27:05;;;;;;;44.70;18.00;;;4.00;99.90;;;;;;5131161;28;20187;-51
2021/12/24 05:29:36;;;;;;;28.53;14.83;;;4.00;99.90;;;;;;5146773;28;20215;-51
2021/12/24 05:32:07;;;;;;;42.43;17.03;;;4.00;99.90;;;;;;5137876;28;20211;-51
2021/12/24 05:34:37;;;;;;;32.80;15.17;;;4.00;99.90;;;;;;5158438;28;20676;-51
2021/12/24 05:37:08;;;;;;;26.37;13.03;;;4.00;99.90;;;;;;5130465;28;20197;-51
2021/12/24 05:39:38;;;;;;;40.53;16.73;;;4.10;99.90;;;;;;5148372;28;20235;-50
2021/12/24 05:42:09;;;;;;;31.73;14.90;;;4.10;99.90;;;;;;5135552;28;20239;-50
2021/12/24 05:44:39;;;;;;;31.07;14.17;;;4.10;99.90;;;;;;5145581;28;20193;-51
2021/12/24 05:47:10;;;;;;;38.10;16.30;;;4.10;99.90;;;;;;5130039;28;20183;-51
2021/12/24 05:49:42;;;;;;;35.50;14.83;;;4.20;99.90;;;;;;5147189;28;20228;-51
2021/12/24 05:52:12;;;;;;;41.07;15.00;;;4.20;99.90;;;;;;5154961;28;20210;-50
2021/12/24 05:54:43;;;;;;;27.63;13.90;;;4.20;99.90;;;;;;5150525;28;20446;-50
2021/12/24 05:57:14;;;;;;;30.37;11.90;;;4.20;99.90;;;;;;5150150;28;20573;-51
2021/12/24 05:59:44;;;;;;;16.17;10.50;;;4.30;99.90;;;;;;5147706;28;20204;-51
2021/12/24 06:02:15;;;;;;;20.70;11.10;;;4.30;99.90;;;;;;5128453;28;20234;-50
2021/12/24 06:04:45;;;;;;;13.83;9.20;;;4.40;99.90;;;;;;5145973;28;20330;-51
2021/12/24 06:07:16;;;;;;;27.60;11.87;;;4.40;99.90;;;;;;5148695;28;20187;-50
2021/12/24 06:09:46;;;;;;;21.53;9.40;;;4.40;99.90;;;;;;5145033;28;21523;-50
2021/12/24 06:12:17;;;;;;;19.23;8.90;;;4.40;99.90;;;;;;5141382;28;20575;-51
2021/12/24 06:14:53;;;;;;;11.20;8.27;;;4.40;99.90;;;;;;5147122;28;20260;-51
2021/12/24 06:17:23;;;;;;;13.00;8.03;;;4.40;99.90;;;;;;5144536;28;20219;-50
2021/12/24 06:19:54;;;;;;;16.00;9.07;;;4.50;99.90;;;;;;5145998;28;20486;-50
2021/12/24 06:22:24;;;;;;;15.93;8.93;;;4.40;99.90;;;;;;5143087;28;20215;-51
2021/12/24 06:24:55;;;;;;;18.47;9.57;;;4.50;99.90;;;;;;5142748;28;20559;-51
2021/12/24 06:27:30;;;;;;;14.07;7.27;;;4.50;99.90;;;;;;5142942;28;20206;-51
2021/12/24 06:30:02;;;;;;;15.00;8.27;;;4.50;99.90;;;;;;5145899;28;20647;-51
2021/12/24 06:32:33;;;;;;;9.13;6.97;;;4.50;99.90;;;;;;5140331;28;21014;-52
2021/12/24 06:35:05;;;;;;;14.63;8.30;;;4.50;99.90;;;;;;5147628;28;20438;-51
2021/12/24 06:37:37;;;;;;;7.97;6.53;;;4.50;99.90;;;;;;5124953;28;20454;-51
2021/12/24 06:40:08;;;;;;;17.70;9.33;;;4.60;99.90;;;;;;5126473;28;20454;-51
2021/12/24 06:42:39;;;;;;;11.00;7.97;;;4.60;99.90;;;;;;5138904;28;20890;-52
2021/12/24 06:45:10;;;;;;;12.37;8.70;;;4.60;99.90;;;;;;5143255;28;20434;-52
2021/12/24 06:47:40;;;;;;;8.60;7.17;;;4.60;99.90;;;;;;5145710;28;20187;-51
2021/12/24 06:50:11;;;;;;;13.90;8.43;;;4.70;99.90;;;;;;5137012;28;20541;-51
2021/12/24 06:52:41;;;;;;;12.93;8.93;;;4.70;99.90;;;;;;5143577;28;20593;-52
2021/12/24 06:55:13;;;;;;;10.50;7.40;;;4.70;99.90;;;;;;5146571;28;20216;-52
2021/12/24 06:57:44;;;;;;;19.27;9.43;;;4.70;99.90;;;;;;5146616;28;20187;-53
2021/12/24 07:00:20;;;;;;;15.30;8.67;;;4.70;99.90;;;;;;5145699;28;20453;-51
2021/12/24 07:02:51;;;;;;;10.23;7.27;;;4.80;99.90;;;;;;5142413;28;20518;-52
2021/12/24 07:05:22;;;;;;;8.77;6.43;;;4.80;99.90;;;;;;5135465;28;20445;-52
2021/12/24 07:07:53;;;;;;;13.93;7.50;;;4.90;99.90;;;;;;5125304;28;20927;-52
2021/12/24 07:10:23;;;;;;;7.13;6.40;;;4.80;99.90;;;;;;5135998;28;20219;-53
2021/12/24 07:12:54;;;;;;;11.87;6.90;;;4.90;99.90;;;;;;5127052;28;20275;-51
2021/12/24 07:15:25;;;;;;;9.97;7.87;;;4.90;99.90;;;;;;5144523;28;20265;-52
2021/12/24 07:17:55;;;;;;;8.37;6.20;;;4.90;99.90;;;;;;5144443;28;20558;-52
2021/12/24 07:20:26;;;;;;;14.23;9.60;;;4.90;99.90;;;;;;5143891;28;20524;-52
2021/12/24 07:22:56;;;;;;;11.73;7.80;;;4.90;99.90;;;;;;5132712;28;20208;-50
2021/12/24 07:25:27;;;;;;;11.83;8.57;;;4.90;99.90;;;;;;5140871;28;20175;-51
2021/12/24 07:27:58;;;;;;;9.53;7.30;;;4.90;99.90;;;;;;5137011;28;20175;-51
2021/12/24 07:30:29;;;;;;;11.23;7.90;;;4.90;99.90;;;;;;5120139;28;20683;-53
2021/12/24 07:33:00;;;;;;;13.70;8.40;;;4.90;99.90;;;;;;5125801;28;20232;-50
2021/12/24 07:35:31;;;;;;;10.50;7.70;;;4.90;99.90;;;;;;5141566;28;20478;-52
2021/12/24 07:38:02;;;;;;;6.13;5.33;;;5.00;99.90;;;;;;5140775;28;20867;-52
2021/12/24 07:40:32;;;;;;;7.70;6.20;;;5.00;99.90;;;;;;5136015;28;20307;-51
2021/12/24 07:43:03;;;;;;;5.90;5.40;;;4.90;99.90;;;;;;5138523;28;20292;-51
2021/12/24 07:45:33;;;;;;;8.20;6.33;;;5.00;99.90;;;;;;5139292;28;20196;-52
2021/12/24 07:48:10;;;;;;;5.20;4.80;;;5.00;99.90;;;;;;5133339;28;20249;-51
2021/12/24 07:53:17;;;;;;;6.43;5.10;;;5.00;99.90;;;;;;5128528;28;20476;-52
2021/12/24 07:55:47;;;;;;;5.63;5.13;;;5.00;99.90;;;;;;5145997;28;20461;-52
2021/12/24 07:58:18;;;;;;;5.70;5.10;;;5.10;99.90;;;;;;5143103;28;20434;-52
2021/12/24 08:00:49;;;;;;;3.50;3.40;;;5.10;99.90;;;;;;5126617;28;20192;-51
2021/12/24 08:03:19;;;;;;;4.50;4.10;;;5.10;99.90;;;;;;5144689;28;20212;-53
2021/12/24 08:05:50;;;;;;;6.30;5.03;;;5.20;99.90;;;;;;5137389;28;20937;-50
2021/12/24 08:08:21;;;;;;;4.80;4.40;;;5.20;99.90;;;;;;5145528;28;20196;-51
2021/12/24 08:10:51;;;;;;;3.43;3.33;;;5.20;99.90;;;;;;5125831;28;20239;-52
2021/12/24 08:13:22;;;;;;;4.43;3.80;;;5.20;99.90;;;;;;5139598;28;20259;-52
2021/12/24 08:15:54;;;;;;;2.90;2.70;;;5.30;99.90;;;;;;5139299;28;20609;-50
2021/12/24 08:18:25;;;;;;;5.37;4.50;;;5.30;99.90;;;;;;5123452;28;20192;-51
2021/12/24 08:20:55;;;;;;;4.77;4.37;;;5.30;99.90;;;;;;5139566;28;20440;-52
2021/12/24 08:23:26;;;;;;;4.70;4.20;;;5.30;99.90;;;;;;5134170;28;20229;-51
2021/12/24 08:25:59;;;;;;;4.77;4.37;;;5.30;99.90;;;;;;5139682;28;20656;-52
2021/12/24 08:28:29;;;;;;;4.30;3.90;;;5.30;99.90;;;;;;5146166;28;20181;-52
2021/12/24 08:31:00;;;;;;;2.50;2.50;;;5.30;99.90;;;;;;5142961;28;20481;-51
2021/12/24 08:33:33;;;;;;;3.30;3.20;;;5.40;99.90;;;;;;5138075;28;20286;-51
2021/12/24 08:36:05;;;;;;;3.23;3.07;;;5.40;99.90;;;;;;5127267;28;20186;-52
2021/12/24 08:38:36;;;;;;;3.70;3.60;;;5.40;99.90;;;;;;5136622;28;20480;-51
2021/12/24 08:41:07;;;;;;;3.30;3.13;;;5.40;99.90;;;;;;5147797;28;20496;-52
2021/12/24 08:43:38;;;;;;;3.03;2.90;;;5.40;99.90;;;;;;5136835;28;20224;-52
2021/12/24 08:46:09;;;;;;;3.83;3.73;;;5.40;99.90;;;;;;5127024;28;20439;-52
2021/12/24 08:48:40;;;;;;;3.40;3.20;;;5.40;99.90;;;;;;5114611;28;20606;-51
2021/12/24 08:51:11;;;;;;;2.80;2.60;;;5.40;99.90;;;;;;5140951;28;20444;-50
2021/12/24 08:53:42;;;;;;;2.77;2.60;;;5.40;99.90;;;;;;5145839;28;20236;-52
2021/12/24 08:56:13;;;;;;;3.40;3.17;;;5.40;99.90;;;;;;5150048;28;20475;-51
2021/12/24 08:58:43;;;;;;;3.10;3.00;;;5.40;99.90;;;;;;5144756;28;20299;-53
2021/12/24 09:01:14;;;;;;;2.90;2.70;;;5.40;99.90;;;;;;5148793;28;20244;-51
2021/12/24 09:03:45;;;;;;;3.60;3.40;;;5.50;99.90;;;;;;5139615;28;20660;-52
2021/12/24 09:06:15;;;;;;;3.10;3.00;;;5.50;99.90;;;;;;5145666;28;20660;-50
2021/12/24 09:08:46;;;;;;;2.87;2.77;;;5.50;99.90;;;;;;5137156;28;20328;-51
2021/12/24 09:11:16;;;;;;;3.53;3.33;;;5.50;99.90;;;;;;5148702;28;20187;-52
2021/12/24 09:13:47;;;;;;;2.27;2.27;;;5.50;99.90;;;;;;5143239;28;20218;-51
2021/12/24 09:16:18;;;;;;;2.50;2.40;;;5.40;99.90;;;;;;5147333;28;20306;-52
2021/12/24 09:18:56;;;;;;;3.23;2.93;;;5.50;99.90;;;;;;5142756;28;20678;-50
2021/12/24 09:21:27;;;;;;;3.03;2.87;;;5.50;99.90;;;;;;5136871;28;20302;-52
2021/12/24 09:23:58;;;;;;;2.80;2.60;;;5.50;99.90;;;;;;5125630;28;20464;-52
2021/12/24 09:26:32;;;;;;;2.97;2.67;;;5.50;99.90;;;;;;5146280;28;20443;-51
2021/12/24 09:29:06;;;;;;;3.00;2.90;;;5.50;99.90;;;;;;5127038;28;20344;-51
2021/12/24 09:31:36;;;;;;;2.50;2.40;;;5.50;99.90;;;;;;5127323;28;20534;-52
2021/12/24 09:34:07;;;;;;;3.20;3.00;;;5.50;99.90;;;;;;5142575;28;20984;-51
2021/12/24 09:36:38;;;;;;;2.60;2.40;;;5.40;99.90;;;;;;5150636;28;20189;-51
2021/12/24 09:39:09;;;;;;;2.37;2.27;;;5.40;99.90;;;;;;5128003;28;20185;-52
2021/12/24 09:41:40;;;;;;;2.10;2.00;;;5.30;99.90;;;;;;5143844;28;20472;-51
2021/12/24 09:44:11;;;;;;;1.90;1.90;;;5.30;99.90;;;;;;5124914;28;20642;-53
2021/12/24 09:46:42;;;;;;;4.80;2.60;;;5.30;99.90;;;;;;5144996;28;20198;-51
2021/12/24 09:49:13;;;;;;;3.13;2.80;;;5.30;99.90;;;;;;5134817;28;20431;-50
2021/12/24 09:51:47;;;;;;;3.67;2.70;;;5.40;99.90;;;;;;5135646;28;20477;-53
2021/12/24 09:54:22;;;;;;;2.77;2.57;;;5.30;99.90;;;;;;5143365;28;20451;-53
2021/12/24 09:56:55;;;;;;;4.13;3.80;;;5.40;99.90;;;;;;5135702;28;20447;-52
2021/12/24 09:59:26;;;;;;;3.37;3.17;;;5.40;99.90;;;;;;5144431;28;20427;-53
2021/12/24 10:02:00;;;;;;;2.50;2.40;;;5.40;99.90;;;;;;5138773;28;20471;-52
2021/12/24 10:04:32;;;;;;;9.30;5.30;;;5.40;99.90;;;;;;5148270;28;20187;-50
2021/12/24 10:07:06;;;;;;;2.97;2.30;;;5.50;99.90;;;;;;5134095;28;20445;-53
2021/12/24 10:09:40;;;;;;;1.90;1.80;;;5.50;99.90;;;;;;5142455;28;20952;-51
2021/12/24 10:12:17;;;;;;;2.20;2.10;;;5.60;99.90;;;;;;5143843;28;21072;-51
2021/12/24 10:14:51;;;;;;;2.20;2.20;;;5.50;99.90;;;;;;5136118;28;20969;-51
2021/12/24 10:17:31;;;;;;;2.57;2.47;;;5.60;99.90;;;;;;5115729;28;20918;-51
2021/12/24 10:20:11;;;;;;;2.37;2.27;;;5.50;99.90;;;;;;5139203;28;20453;-53
2021/12/24 10:22:48;;;;;;;4.17;2.50;;;5.40;99.90;;;;;;5117171;28;21007;-52
2021/12/24 10:25:30;;;;;;;2.70;2.50;;;5.40;99.90;;;;;;5138554;28;20975;-53
2021/12/24 10:28:09;;;;;;;1.90;1.80;;;5.40;99.90;;;;;;5137559;28;20440;-51
2021/12/24 10:30:40;;;;;;;2.47;2.37;;;5.30;99.90;;;;;;5142299;28;20557;-52
2021/12/24 10:33:11;;;;;;;2.30;2.30;;;5.40;99.90;;;;;;5143538;28;21012;-51
2021/12/24 10:35:41;;;;;;;2.10;2.10;;;5.40;99.90;;;;;;5129307;28;20660;-51
2021/12/24 10:38:17;;;;;;;2.83;2.73;;;5.40;99.90;;;;;;5143931;28;20183;-52
2021/12/24 10:40:51;;;;;;;2.50;2.40;;;5.50;99.90;;;;;;5142569;28;20203;-50
2021/12/24 10:43:31;;;;;;;2.67;2.57;;;5.50;99.90;;;;;;5171191;23;21024;-49
2021/12/24 10:46:17;;;;;;;2.30;2.20;;;5.50;99.90;;;;;;5160867;28;20553;-48
2021/12/24 10:49:03;;;;;;;2.50;2.40;;;5.50;99.90;;;;;;5172286;28;20524;-48
2021/12/24 10:52:00;;;;;;;2.17;2.03;;;5.50;99.90;;;;;;5158151;28;20537;-51
2021/12/24 10:54:30;;;;;;;1.70;1.70;;;5.40;99.90;;;;;;5153796;28;20451;-48
2021/12/24 10:57:18;;;;;;;1.70;1.60;;;5.30;99.90;;;;;;5155534;28;21994;-49
2021/12/24 10:59:53;;;;;;;2.03;2.03;;;5.30;99.90;;;;;;5153396;28;20198;-48
2021/12/24 11:02:29;;;;;;;2.33;2.23;;;5.20;99.90;;;;;;5153193;28;21233;-47
2021/12/24 11:05:02;;;;;;;2.30;2.13;;;5.30;99.90;;;;;;5140444;28;20435;-49
2021/12/24 11:07:43;;;;;;;2.20;2.07;;;5.30;99.90;;;;;;5144535;28;20788;-48
2021/12/24 11:10:19;;;;;;;1.90;1.80;;;5.20;99.90;;;;;;5133032;28;20505;-48
2021/12/24 11:12:55;;;;;;;2.10;1.97;;;5.30;99.90;;;;;;5152000;28;20529;-48
2021/12/24 11:15:30;;;;;;;2.03;1.90;;;5.20;99.90;;;;;;5137151;28;20538;-48
2021/12/24 11:18:21;;;;;;;1.77;1.67;;;5.10;99.90;;;;;;5141867;28;20438;-49
2021/12/24 11:20:56;;;;;;;1.73;1.63;;;5.00;99.90;;;;;;5134029;28;20531;-50
2021/12/24 11:23:29;;;;;;;1.97;1.87;;;4.90;99.90;;;;;;5151935;28;20469;-48
2021/12/24 11:26:06;;;;;;;1.57;1.47;;;4.90;99.90;;;;;;5155159;28;20480;-48
2021/12/24 11:28:37;;;;;;;1.33;1.33;;;5.00;99.90;;;;;;5151808;28;20446;-48
2021/12/24 11:31:20;;;;;;;2.03;1.83;;;5.00;99.90;;;;;;5140267;28;20471;-49
2021/12/24 11:33:52;;;;;;;1.47;1.37;;;5.00;99.90;;;;;;5153591;28;20480;-48
2021/12/24 11:36:25;;;;;;;1.30;1.30;;;4.90;99.90;;;;;;5136564;28;20434;-48
2021/12/24 11:38:59;;;;;;;2.10;1.37;;;4.90;99.90;;;;;;5136591;28;20444;-48
2021/12/24 11:41:33;;;;;;;0.80;0.80;;;4.80;99.90;;;;;;5150900;28;20462;-48
2021/12/24 11:44:07;;;;;;;1.30;1.20;;;4.70;99.90;;;;;;5149676;28;20482;-47
2021/12/24 11:46:39;;;;;;;1.00;1.00;;;4.70;99.90;;;;;;5151023;28;20435;-48
2021/12/24 11:49:09;;;;;;;1.33;1.20;;;4.70;99.90;;;;;;5155454;28;20780;-50
2021/12/24 11:51:40;;;;;;;1.80;1.07;;;4.60;99.90;;;;;;5151073;28;20436;-48
2021/12/24 11:54:13;;;;;;;3.00;2.80;;;4.60;99.90;;;;;;5158057;28;20327;-50
2021/12/24 11:56:47;;;;;;;10.70;7.00;;;4.50;99.90;;;;;;5147841;28;20435;-49
2021/12/24 11:59:37;;;;;;;1.10;1.10;;;4.50;99.90;;;;;;5150827;28;20988;-48
2021/12/24 12:02:08;;;;;;;2.10;1.30;;;4.50;99.90;;;;;;5151196;28;20559;-49
2021/12/24 12:04:39;;;;;;;2.63;1.13;;;4.50;99.90;;;;;;5153972;28;20438;-47
2021/12/24 12:07:16;;;;;;;1.10;1.10;;;4.50;99.90;;;;;;5154139;28;20441;-48
2021/12/24 12:09:47;;;;;;;1.10;1.10;;;4.40;99.90;;;;;;5134655;28;20192;-48
2021/12/24 12:12:35;;;;;;;1.43;1.43;;;4.40;99.90;;;;;;5153966;28;20466;-49
2021/12/24 12:15:25;;;;;;;1.07;0.93;;;4.30;99.90;;;;;;5156665;28;20326;-49
2021/12/24 12:18:04;;;;;;;1.20;1.20;;;4.10;99.90;;;;;;5159444;28;20441;-48
2021/12/24 12:20:55;;;;;;;0.90;0.90;;;3.90;99.90;;;;;;5157471;28;20428;-48
2021/12/24 12:24:56;;;;;;;0.97;0.93;;;3.80;99.90;;;;;;5159034;28;20490;-48
2021/12/24 12:26:44;;;;;;;1.07;0.97;;;3.80;99.90;;;;;;5157793;28;20443;-48
2021/12/24 12:29:23;;;;;;;0.90;0.90;;;3.70;99.90;;;;;;5134324;28;20446;-48
2021/12/24 12:32:10;;;;;;;1.07;1.07;;;3.70;99.90;;;;;;5150687;28;20437;-48
2021/12/24 12:34:44;;;;;;;1.50;1.07;;;3.40;99.90;;;;;;5155860;28;20449;-48
2021/12/24 12:37:18;;;;;;;2.87;0.80;;;3.40;99.90;;;;;;5158592;28;20455;-49
2021/12/24 12:40:02;;;;;;;0.67;0.67;;;3.20;99.90;;;;;;5155887;28;20808;-47
2021/12/24 12:43:00;;;;;;;0.80;0.80;;;3.20;99.90;;;;;;5160535;28;20475;-47
2021/12/24 12:45:34;;;;;;;1.23;1.23;;;3.10;99.90;;;;;;5159311;28;20464;-47
2021/12/24 12:48:08;;;;;;;1.10;1.10;;;3.00;99.90;;;;;;5146980;28;20431;-48
2021/12/24 12:50:49;;;;;;;1.07;1.07;;;2.90;99.90;;;;;;5156361;28;20480;-48
2021/12/24 12:53:28;;;;;;;2.87;2.27;;;2.80;99.90;;;;;;5151699;28;20517;-47
2021/12/24 12:56:14;;;;;;;2.33;2.23;;;2.80;99.90;;;;;;5161045;28;20924;-48
2021/12/24 12:58:57;;;;;;;1.67;1.57;;;2.80;99.90;;;;;;5147739;28;20458;-50
2021/12/24 13:01:28;;;;;;;1.93;1.93;;;2.70;99.90;;;;;;5162516;28;20464;-48
2021/12/24 13:03:59;;;;;;;3.00;2.43;;;2.60;99.90;;;;;;5156348;28;20997;-48
2021/12/24 13:06:36;;;;;;;2.83;2.63;;;2.50;99.90;;;;;;5157969;28;20185;-49
2021/12/24 13:09:14;;;;;;;4.10;3.60;;;2.40;99.90;;;;;;5139333;28;20439;-47
2021/12/24 13:11:47;;;;;;;4.73;4.43;;;2.50;99.90;;;;;;5138975;28;20444;-48
2021/12/24 13:14:20;;;;;;;3.80;3.60;;;2.50;99.90;;;;;;5158589;28;20590;-48
2021/12/24 13:17:16;;;;;;;5.53;4.97;;;2.50;99.90;;;;;;5139051;28;20439;-48
2021/12/24 13:22:30;;;;;;;5.40;4.90;;;2.50;99.90;;;;;;5158229;28;21678;-46
2021/12/24 13:25:10;;;;;;;6.50;5.90;;;2.50;99.90;;;;;;5145988;28;20181;-47
2021/12/24 13:27:48;;;;;;;5.63;5.10;;;2.60;99.90;;;;;;5155670;28;20524;-47
2021/12/24 13:30:22;;;;;;;5.00;4.70;;;2.60;99.90;;;;;;5156643;28;20456;-49
2021/12/24 13:33:02;;;;;;;5.47;5.00;;;2.60;99.90;;;;;;5159523;28;20848;-48
2021/12/24 13:35:44;;;;;;;5.97;5.47;;;2.50;99.90;;;;;;5143029;28;20459;-49
2021/12/24 13:38:16;;;;;;;5.03;4.70;;;2.50;99.90;;;;;;5161570;28;20432;-48
2021/12/24 13:40:47;;;;;;;6.97;5.90;;;2.50;99.90;;;;;;5140904;28;20437;-47
2021/12/24 13:43:19;;;;;;;5.77;5.30;;;2.40;99.90;;;;;;5157576;28;20771;-48
2021/12/24 13:45:52;;;;;;;9.77;6.17;;;2.40;99.90;;;;;;5162196;28;20715;-47
2021/12/24 13:48:43;;;;;;;6.00;5.50;;;2.40;99.90;;;;;;5148095;28;20498;-46
2021/12/24 13:56:51;;;;;;;5.83;5.43;;;2.40;99.90;;;;;;5151678;28;20917;-47
2021/12/24 13:59:24;;;;;;;7.43;6.70;;;2.50;99.90;;;;;;5162415;28;20423;-47
2021/12/24 14:01:55;;;;;;;6.73;6.17;;;2.40;99.90;;;;;;5140748;28;20457;-47
2021/12/24 14:04:26;;;;;;;7.00;6.07;;;2.30;99.90;;;;;;5144029;28;20531;-47
2021/12/24 14:06:58;;;;;;;6.23;5.63;;;2.30;99.90;;;;;;5144650;28;20496;-47
2021/12/24 14:09:32;;;;;;;6.33;5.70;;;2.40;99.90;;;;;;5155399;28;20185;-48
2021/12/24 14:12:07;;;;;;;5.67;5.17;;;2.40;99.90;;;;;;5142118;28;20929;-45
2021/12/24 14:15:06;;;;;;;6.63;6.00;;;2.40;99.90;;;;;;5156500;28;20450;-47
2021/12/24 14:18:02;;;;;;;5.10;4.80;;;2.30;99.90;;;;;;5153793;28;20455;-47
2021/12/24 14:20:59;;;;;;;5.87;5.33;;;2.30;99.90;;;;;;5154200;28;20444;-47
2021/12/24 14:23:23;;;;;;;6.93;6.00;;;2.30;99.90;;;;;;5159738;28;20985;-47
2021/12/24 14:26:00;;;;;;;5.87;4.83;;;2.20;99.90;;;;;;5158550;28;20463;-49
2021/12/24 14:28:30;;;;;;;7.70;6.70;;;2.20;99.90;;;;;;5142188;28;20203;-47
2021/12/24 14:31:04;;;;;;;6.90;6.30;;;2.20;99.90;;;;;;5150415;28;20455;-48
2021/12/24 14:33:36;;;;;;;6.73;6.23;;;2.20;99.90;;;;;;5137104;28;20224;-48
2021/12/24 14:36:17;;;;;;;10.90;7.30;;;2.10;99.90;;;;;;5149313;28;20436;-47
2021/12/24 14:38:48;;;;;;;7.00;6.30;;;2.10;99.90;;;;;;5153109;28;20439;-47
2021/12/24 14:41:23;;;;;;;7.30;6.60;;;2.00;99.90;;;;;;5154405;28;20433;-48
2021/12/24 14:43:53;;;;;;;7.60;6.87;;;2.00;99.90;;;;;;5156481;28;20214;-48
2021/12/24 14:46:25;;;;;;;10.47;8.67;;;2.00;99.90;;;;;;5144377;28;20424;-47
2021/12/24 14:49:04;;;;;;;8.93;7.73;;;2.00;99.90;;;;;;5150313;28;20235;-46
2021/12/24 14:51:35;;;;;;;9.03;8.20;;;2.00;99.90;;;;;;5137710;28;20796;-48
2021/12/24 14:54:06;;;;;;;13.43;7.90;;;1.90;99.90;;;;;;5130757;28;20513;-48
2021/12/24 14:56:37;;;;;;;9.80;8.33;;;1.80;99.90;;;;;;5125246;28;20196;-48
2021/12/24 14:59:07;;;;;;;11.20;8.43;;;1.90;99.90;;;;;;5120490;28;20208;-49
2021/12/24 15:01:42;;;;;;;10.43;8.63;;;1.80;99.90;;;;;;5105103;28;20476;-48
2021/12/24 15:04:14;;;;;;;11.23;8.40;;;1.80;99.90;;;;;;5099326;29;20312;-47
2021/12/24 15:06:50;;;;;;;8.20;7.40;;;1.80;99.90;;;;;;5108086;28;20524;-48
2021/12/24 15:09:27;;;;;;;11.10;8.70;;;1.80;99.90;;;;;;5109472;28;21107;-47
2021/12/24 15:11:58;;;;;;;12.37;8.40;;;1.80;99.90;;;;;;5103069;29;20441;-51
2021/12/24 15:14:30;;;;;;;9.93;8.13;;;1.70;99.90;;;;;;5120379;28;20435;-48
2021/12/24 15:17:02;;;;;;;12.03;9.40;;;1.70;99.90;;;;;;5110519;28;20194;-47